Terminal Aerodrome Forecast
Issued by NWS

Home | Current Version | Previous Version | Text Only | Print | Product List | Glossary On
Versions: 1 2 3 4 5 6 7 8 9 10 11 12 13 14 15 16
000
FTUS42 KGSP 291120
TAFGMU
TAF
KGMU 291120Z 2912/3012 19003KT P6SM SCT250
     FM291500 22006G14KT P6SM SCT250
     FM291800 22010G17KT P6SM SCT110 BKN250
     FM300100 22006G14KT P6SM SCT060 BKN110
     FM300600 26007G14KT P6SM SCT060 BKN100
     FM300800 32008G15KT P6SM FEW060 SCT100 BKN250=

USA.gov is the U.S. government's official web portal to all federal, state and local government web resources and services.